DLH162 EDXW-EDDF
Flight info
| Callsign | DLH162 |
|---|---|
| Flight time | 1h 5m |
| Altitude | 39000 |
| Route | OLDIP1A OLDIP DCT BADOS DCT OMWEG Y348 ELSOB DCT RIMET T157 KERAX KERAX5D |
| Aircraft | A319/M-SDE3FGHIRWY/LB1 |
Departure
| Time | 2026-05-08 17:46 |
|---|---|
| Airport | Westerland Sylt Airport (EDXW) |
Arrival
| Time | 2026-05-08 18:52 |
|---|---|
| Airport | Frankfurt Main Airport (EDDF) |
| Time | Latitude | Longitude | Altitude | Speed | Heading |
|---|---|---|---|---|---|
| 2026-05-08 17:20 | 54.91351 | 8.33141 | 29 ft | 0 kts | 268° |
| 2026-05-08 17:39 | 54.91352 | 8.33174 | 29 ft | 4 kts | 268° |
| 2026-05-08 17:39 | 54.91352 | 8.33220 | 29 ft | 4 kts | 268° |
| 2026-05-08 17:39 | 54.91353 | 8.33267 | 29 ft | 4 kts | 268° |
| 2026-05-08 17:39 | 54.91353 | 8.33280 | 29 ft | 0 kts | 268° |
| 2026-05-08 17:40 | 54.91354 | 8.33270 | 29 ft | 3 kts | 276° |
| 2026-05-08 17:41 | 54.91368 | 8.33248 | 29 ft | 3 kts | 342° |
| 2026-05-08 17:41 | 54.91370 | 8.33249 | 29 ft | 0 kts | 357° |
| 2026-05-08 17:42 | 54.91386 | 8.33248 | 29 ft | 4 kts | 357° |
| 2026-05-08 17:42 | 54.91420 | 8.33233 | 29 ft | 7 kts | 342° |
| 2026-05-08 17:42 | 54.91464 | 8.33194 | 29 ft | 7 kts | 331° |
| 2026-05-08 17:43 | 54.91508 | 8.33173 | 30 ft | 6 kts | 358° |
| 2026-05-08 17:43 | 54.91548 | 8.33174 | 32 ft | 6 kts | 1° |
| 2026-05-08 17:43 | 54.91594 | 8.33176 | 34 ft | 8 kts | 1° |
| 2026-05-08 17:43 | 54.91651 | 8.33179 | 35 ft | 8 kts | 1° |
| 2026-05-08 17:44 | 54.91714 | 8.33180 | 35 ft | 11 kts | 359° |
| 2026-05-08 17:44 | 54.91799 | 8.33185 | 35 ft | 13 kts | 15° |
| 2026-05-08 17:44 | 54.91867 | 8.33230 | 34 ft | 8 kts | 27° |
| 2026-05-08 17:44 | 54.91910 | 8.33299 | 35 ft | 8 kts | 49° |
| 2026-05-08 17:45 | 54.91903 | 8.33326 | 35 ft | 0 kts | 141° |
| 2026-05-08 17:46 | 54.91837 | 8.33410 | 35 ft | 42 kts | 146° |
| 2026-05-08 17:46 | 54.91385 | 8.33969 | 36 ft | 115 kts | 145° |
| 2026-05-08 17:46 | 54.90620 | 8.34920 | 324 ft | 143 kts | 140° |
| 2026-05-08 17:46 | 54.89821 | 8.35899 | 1112 ft | 139 kts | 141° |
| 2026-05-08 17:47 | 54.89036 | 8.36854 | 1838 ft | 138 kts | 142° |
| 2026-05-08 17:47 | 54.88192 | 8.37876 | 2307 ft | 158 kts | 142° |
| 2026-05-08 17:47 | 54.87254 | 8.39032 | 2871 ft | 172 kts | 142° |
| 2026-05-08 17:47 | 54.86580 | 8.39864 | 3163 ft | 188 kts | 141° |
| 2026-05-08 17:48 | 54.85036 | 8.41799 | 3781 ft | 221 kts | 142° |
| 2026-05-08 17:48 | 54.83716 | 8.43444 | 4335 ft | 245 kts | 142° |
| 2026-05-08 17:48 | 54.82300 | 8.45202 | 5192 ft | 255 kts | 142° |
| 2026-05-08 17:48 | 54.80844 | 8.47002 | 6189 ft | 259 kts | 142° |
| 2026-05-08 17:49 | 54.79360 | 8.48831 | 7133 ft | 264 kts | 143° |
| 2026-05-08 17:49 | 54.77847 | 8.50689 | 8038 ft | 270 kts | 143° |
| 2026-05-08 17:49 | 54.76297 | 8.52588 | 8950 ft | 275 kts | 144° |
| 2026-05-08 17:49 | 54.74716 | 8.54524 | 9863 ft | 281 kts | 145° |
| 2026-05-08 17:50 | 54.73102 | 8.56501 | 10697 ft | 286 kts | 145° |
| 2026-05-08 17:50 | 54.71460 | 8.58510 | 11525 ft | 291 kts | 145° |
| 2026-05-08 17:50 | 54.69794 | 8.60543 | 12365 ft | 296 kts | 145° |
| 2026-05-08 17:50 | 54.68120 | 8.62587 | 13183 ft | 300 kts | 145° |
| 2026-05-08 17:51 | 54.66401 | 8.64681 | 14007 ft | 305 kts | 145° |
| 2026-05-08 17:51 | 54.64651 | 8.66811 | 14720 ft | 310 kts | 146° |
| 2026-05-08 17:51 | 54.62873 | 8.68978 | 15424 ft | 315 kts | 146° |
| 2026-05-08 17:51 | 54.61154 | 8.71369 | 16039 ft | 325 kts | 137° |
| 2026-05-08 17:52 | 54.59505 | 8.74235 | 16207 ft | 348 kts | 135° |
| 2026-05-08 17:52 | 54.57755 | 8.77318 | 16355 ft | 369 kts | 135° |
| 2026-05-08 17:52 | 54.54071 | 8.83822 | 17424 ft | 386 kts | 135° |
| 2026-05-08 17:53 | 54.52205 | 8.87103 | 18084 ft | 390 kts | 135° |
| 2026-05-08 17:53 | 54.50289 | 8.90457 | 18729 ft | 394 kts | 135° |
| 2026-05-08 17:53 | 54.48350 | 8.93834 | 19312 ft | 398 kts | 135° |
| 2026-05-08 17:53 | 54.46393 | 8.97237 | 19903 ft | 402 kts | 135° |
| 2026-05-08 17:54 | 54.44415 | 9.00667 | 20501 ft | 406 kts | 136° |
| 2026-05-08 17:54 | 54.42417 | 9.04119 | 21110 ft | 409 kts | 136° |
| 2026-05-08 17:54 | 54.40405 | 9.07595 | 21690 ft | 413 kts | 136° |
| 2026-05-08 17:54 | 54.38365 | 9.11117 | 22259 ft | 416 kts | 137° |
| 2026-05-08 17:55 | 54.36131 | 9.14286 | 22796 ft | 419 kts | 147° |
| 2026-05-08 17:55 | 54.33633 | 9.16893 | 23338 ft | 422 kts | 152° |
| 2026-05-08 17:55 | 54.31084 | 9.19422 | 23841 ft | 425 kts | 152° |
| 2026-05-08 17:55 | 54.28520 | 9.21969 | 24274 ft | 429 kts | 151° |
| 2026-05-08 17:56 | 54.25924 | 9.24556 | 24709 ft | 432 kts | 151° |
| 2026-05-08 17:56 | 54.23323 | 9.27151 | 25145 ft | 435 kts | 151° |
| 2026-05-08 17:56 | 54.20703 | 9.29759 | 25570 ft | 437 kts | 152° |
| 2026-05-08 17:56 | 54.18100 | 9.32349 | 25997 ft | 440 kts | 152° |
| 2026-05-08 17:57 | 54.15411 | 9.35018 | 26436 ft | 443 kts | 152° |
| 2026-05-08 17:57 | 54.12774 | 9.37620 | 26850 ft | 445 kts | 152° |
| 2026-05-08 17:57 | 54.10080 | 9.40276 | 27267 ft | 448 kts | 152° |
| 2026-05-08 17:57 | 54.07373 | 9.42935 | 27681 ft | 451 kts | 152° |
| 2026-05-08 17:58 | 54.04645 | 9.45611 | 28087 ft | 453 kts | 152° |
| 2026-05-08 17:58 | 54.01845 | 9.48078 | 28477 ft | 454 kts | 159° |
| 2026-05-08 17:58 | 53.98860 | 9.49835 | 28857 ft | 454 kts | 168° |
| 2026-05-08 17:58 | 53.95760 | 9.50839 | 29232 ft | 454 kts | 175° |
| 2026-05-08 17:59 | 53.92621 | 9.51563 | 29612 ft | 456 kts | 175° |
| 2026-05-08 17:59 | 53.89467 | 9.52291 | 29976 ft | 458 kts | 175° |
| 2026-05-08 17:59 | 53.86297 | 9.53027 | 30325 ft | 461 kts | 175° |
| 2026-05-08 17:59 | 53.83115 | 9.53771 | 30625 ft | 463 kts | 175° |
| 2026-05-08 18:00 | 53.80956 | 9.54276 | 30839 ft | 464 kts | 175° |
| 2026-05-08 18:00 | 53.73555 | 9.56006 | 31856 ft | 460 kts | 175° |
| 2026-05-08 18:00 | 53.70380 | 9.56746 | 32304 ft | 459 kts | 175° |
| 2026-05-08 18:01 | 53.67225 | 9.57484 | 32751 ft | 458 kts | 175° |
| 2026-05-08 18:01 | 53.64072 | 9.58225 | 33182 ft | 457 kts | 174° |
| 2026-05-08 18:01 | 53.60936 | 9.59049 | 33618 ft | 456 kts | 173° |
| 2026-05-08 18:01 | 53.57813 | 9.59958 | 34061 ft | 455 kts | 172° |
| 2026-05-08 18:02 | 53.54702 | 9.60910 | 34437 ft | 454 kts | 172° |
| 2026-05-08 18:02 | 53.52604 | 9.61558 | 34681 ft | 454 kts | 172° |
| 2026-05-08 18:02 | 53.49497 | 9.62507 | 35004 ft | 454 kts | 172° |
| 2026-05-08 18:02 | 53.46422 | 9.63420 | 35318 ft | 454 kts | 173° |
| 2026-05-08 18:03 | 53.43271 | 9.64334 | 35619 ft | 454 kts | 173° |
| 2026-05-08 18:03 | 53.40198 | 9.65212 | 35900 ft | 454 kts | 173° |
| 2026-05-08 18:03 | 53.37082 | 9.66099 | 36173 ft | 454 kts | 173° |
| 2026-05-08 18:03 | 53.33926 | 9.67001 | 36438 ft | 454 kts | 173° |
| 2026-05-08 18:04 | 53.30809 | 9.67894 | 36706 ft | 455 kts | 173° |
| 2026-05-08 18:04 | 53.27691 | 9.68792 | 36968 ft | 455 kts | 173° |
| 2026-05-08 18:04 | 53.24567 | 9.69687 | 37214 ft | 455 kts | 173° |
| 2026-05-08 18:04 | 53.21447 | 9.70577 | 37455 ft | 455 kts | 173° |
| 2026-05-08 18:05 | 53.18363 | 9.71453 | 37698 ft | 455 kts | 173° |
| 2026-05-08 18:05 | 53.15198 | 9.72351 | 37929 ft | 456 kts | 173° |
| 2026-05-08 18:05 | 53.12071 | 9.73240 | 38159 ft | 456 kts | 173° |
| 2026-05-08 18:05 | 53.08937 | 9.74130 | 38385 ft | 456 kts | 173° |
| 2026-05-08 18:06 | 53.05807 | 9.75014 | 38609 ft | 456 kts | 173° |
| 2026-05-08 18:06 | 53.02676 | 9.75896 | 38836 ft | 457 kts | 173° |
| 2026-05-08 18:06 | 52.99586 | 9.76768 | 38983 ft | 457 kts | 173° |
| 2026-05-08 18:06 | 52.96413 | 9.77664 | 39121 ft | 457 kts | 173° |
| 2026-05-08 18:07 | 52.90142 | 9.79428 | 39168 ft | 457 kts | 173° |
| 2026-05-08 18:07 | 52.83871 | 9.81182 | 39168 ft | 457 kts | 173° |
| 2026-05-08 18:08 | 52.77634 | 9.82929 | 39182 ft | 457 kts | 173° |
| 2026-05-08 18:08 | 52.71369 | 9.84689 | 39185 ft | 457 kts | 173° |
| 2026-05-08 18:09 | 52.65094 | 9.86428 | 39190 ft | 457 kts | 173° |
| 2026-05-08 18:09 | 52.58818 | 9.88161 | 39196 ft | 457 kts | 173° |
| 2026-05-08 18:10 | 52.52546 | 9.89904 | 39196 ft | 457 kts | 173° |
| 2026-05-08 18:10 | 52.46270 | 9.91640 | 39200 ft | 457 kts | 173° |
| 2026-05-08 18:11 | 52.39997 | 9.93369 | 39192 ft | 457 kts | 173° |
| 2026-05-08 18:11 | 52.33720 | 9.95086 | 39194 ft | 457 kts | 173° |
| 2026-05-08 18:12 | 52.27441 | 9.96798 | 39191 ft | 457 kts | 173° |
| 2026-05-08 18:12 | 52.21162 | 9.98509 | 39187 ft | 457 kts | 173° |
| 2026-05-08 18:13 | 52.14890 | 10.00215 | 39185 ft | 457 kts | 173° |
| 2026-05-08 18:13 | 52.08617 | 10.01927 | 39184 ft | 457 kts | 173° |
| 2026-05-08 18:14 | 52.02347 | 10.03618 | 39188 ft | 457 kts | 173° |
| 2026-05-08 18:14 | 51.96073 | 10.05308 | 39186 ft | 457 kts | 173° |
| 2026-05-08 18:15 | 51.89805 | 10.06989 | 39184 ft | 457 kts | 173° |
| 2026-05-08 18:15 | 51.83529 | 10.08667 | 39180 ft | 457 kts | 173° |
| 2026-05-08 18:16 | 51.77257 | 10.10350 | 39186 ft | 457 kts | 173° |
| 2026-05-08 18:16 | 51.70981 | 10.12019 | 39184 ft | 457 kts | 173° |
| 2026-05-08 18:17 | 51.64707 | 10.13678 | 39184 ft | 457 kts | 173° |
| 2026-05-08 18:17 | 51.58431 | 10.15337 | 39185 ft | 457 kts | 173° |
| 2026-05-08 18:18 | 51.52162 | 10.16987 | 39181 ft | 457 kts | 173° |
| 2026-05-08 18:18 | 51.45892 | 10.18648 | 39180 ft | 457 kts | 173° |
| 2026-05-08 18:19 | 51.42762 | 10.19476 | 38796 ft | 458 kts | 173° |
| 2026-05-08 18:19 | 51.39597 | 10.20306 | 37666 ft | 461 kts | 173° |
| 2026-05-08 18:19 | 51.36431 | 10.21136 | 36617 ft | 459 kts | 173° |
| 2026-05-08 18:19 | 51.33288 | 10.21827 | 35618 ft | 454 kts | 179° |
| 2026-05-08 18:20 | 51.30187 | 10.21885 | 34663 ft | 449 kts | 184° |
| 2026-05-08 18:20 | 51.27028 | 10.21817 | 33628 ft | 446 kts | 183° |
| 2026-05-08 18:20 | 51.23935 | 10.21748 | 32540 ft | 444 kts | 184° |
| 2026-05-08 18:20 | 51.20892 | 10.21082 | 31495 ft | 440 kts | 198° |
| 2026-05-08 18:21 | 51.18072 | 10.19263 | 29996 ft | 444 kts | 210° |
| 2026-05-08 18:21 | 51.15348 | 10.16877 | 28794 ft | 449 kts | 211° |
| 2026-05-08 18:21 | 51.12625 | 10.14460 | 27910 ft | 446 kts | 211° |
| 2026-05-08 18:21 | 51.09932 | 10.12063 | 27111 ft | 441 kts | 211° |
| 2026-05-08 18:22 | 51.07267 | 10.09703 | 26338 ft | 436 kts | 211° |
| 2026-05-08 18:22 | 51.04625 | 10.07381 | 25616 ft | 431 kts | 210° |
| 2026-05-08 18:22 | 51.02011 | 10.05097 | 24903 ft | 427 kts | 210° |
| 2026-05-08 18:22 | 50.99387 | 10.02816 | 23652 ft | 434 kts | 210° |
| 2026-05-08 18:23 | 50.96706 | 10.00489 | 22199 ft | 443 kts | 210° |
| 2026-05-08 18:23 | 50.94001 | 9.98137 | 21166 ft | 442 kts | 210° |
| 2026-05-08 18:23 | 50.91315 | 9.95803 | 20283 ft | 438 kts | 210° |
| 2026-05-08 18:23 | 50.88652 | 9.93490 | 19459 ft | 434 kts | 210° |
| 2026-05-08 18:24 | 50.86015 | 9.91205 | 18666 ft | 430 kts | 210° |
| 2026-05-08 18:24 | 50.83400 | 9.88949 | 17827 ft | 426 kts | 210° |
| 2026-05-08 18:24 | 50.80810 | 9.86720 | 16999 ft | 422 kts | 210° |
| 2026-05-08 18:24 | 50.78282 | 9.84540 | 16247 ft | 417 kts | 210° |
| 2026-05-08 18:25 | 50.75744 | 9.82351 | 15520 ft | 413 kts | 210° |
| 2026-05-08 18:25 | 50.73231 | 9.80186 | 14829 ft | 410 kts | 210° |
| 2026-05-08 18:25 | 50.70744 | 9.78048 | 14171 ft | 406 kts | 210° |
| 2026-05-08 18:25 | 50.68277 | 9.75903 | 13502 ft | 403 kts | 212° |
| 2026-05-08 18:26 | 50.66132 | 9.73118 | 13184 ft | 399 kts | 228° |
| 2026-05-08 18:26 | 50.64359 | 9.69755 | 13128 ft | 399 kts | 232° |
| 2026-05-08 18:26 | 50.62601 | 9.66353 | 13139 ft | 400 kts | 232° |
| 2026-05-08 18:26 | 50.60848 | 9.62951 | 13140 ft | 400 kts | 232° |
| 2026-05-08 18:27 | 50.59098 | 9.59548 | 13137 ft | 400 kts | 232° |
| 2026-05-08 18:27 | 50.57942 | 9.57295 | 13137 ft | 400 kts | 232° |
| 2026-05-08 18:27 | 50.55597 | 9.52733 | 13129 ft | 397 kts | 232° |
| 2026-05-08 18:27 | 50.53855 | 9.49351 | 13133 ft | 400 kts | 232° |
| 2026-05-08 18:28 | 50.52148 | 9.46043 | 13126 ft | 379 kts | 232° |
| 2026-05-08 18:28 | 50.50533 | 9.42913 | 13127 ft | 359 kts | 232° |
| 2026-05-08 18:28 | 50.48975 | 9.39902 | 13127 ft | 353 kts | 232° |
| 2026-05-08 18:28 | 50.47434 | 9.36923 | 13125 ft | 351 kts | 232° |
| 2026-05-08 18:29 | 50.45894 | 9.33952 | 13123 ft | 351 kts | 232° |
| 2026-05-08 18:29 | 50.44356 | 9.30993 | 13117 ft | 350 kts | 231° |
| 2026-05-08 18:29 | 50.42803 | 9.28043 | 13121 ft | 351 kts | 229° |
| 2026-05-08 18:29 | 50.41080 | 9.25326 | 13115 ft | 352 kts | 223° |
| 2026-05-08 18:30 | 50.39153 | 9.22958 | 12883 ft | 352 kts | 215° |
| 2026-05-08 18:30 | 50.37078 | 9.20917 | 12620 ft | 351 kts | 212° |
| 2026-05-08 18:30 | 50.35007 | 9.18922 | 12362 ft | 350 kts | 213° |
| 2026-05-08 18:30 | 50.32940 | 9.16921 | 12099 ft | 348 kts | 213° |
| 2026-05-08 18:31 | 50.30924 | 9.14839 | 11842 ft | 346 kts | 218° |
| 2026-05-08 18:31 | 50.29116 | 9.12381 | 11592 ft | 344 kts | 226° |
| 2026-05-08 18:31 | 50.27553 | 9.09571 | 11340 ft | 342 kts | 234° |
| 2026-05-08 18:31 | 50.26258 | 9.06478 | 11081 ft | 340 kts | 241° |
| 2026-05-08 18:32 | 50.25244 | 9.03155 | 10840 ft | 338 kts | 249° |
| 2026-05-08 18:32 | 50.24441 | 8.99717 | 10598 ft | 336 kts | 250° |
| 2026-05-08 18:32 | 50.23640 | 8.96289 | 10356 ft | 335 kts | 250° |
| 2026-05-08 18:32 | 50.22836 | 8.92877 | 10109 ft | 333 kts | 250° |
| 2026-05-08 18:33 | 50.22062 | 8.89595 | 9957 ft | 321 kts | 250° |
| 2026-05-08 18:33 | 50.21278 | 8.86270 | 9827 ft | 323 kts | 250° |
| 2026-05-08 18:33 | 50.20499 | 8.82970 | 9692 ft | 323 kts | 250° |
| 2026-05-08 18:33 | 50.19723 | 8.79688 | 9560 ft | 323 kts | 250° |
| 2026-05-08 18:34 | 50.18947 | 8.76401 | 9430 ft | 322 kts | 250° |
| 2026-05-08 18:34 | 50.18175 | 8.73136 | 9293 ft | 314 kts | 250° |
| 2026-05-08 18:34 | 50.17434 | 8.70011 | 9166 ft | 300 kts | 250° |
| 2026-05-08 18:34 | 50.16737 | 8.67073 | 9106 ft | 284 kts | 250° |
| 2026-05-08 18:35 | 50.16051 | 8.64187 | 9104 ft | 277 kts | 250° |
| 2026-05-08 18:35 | 50.15393 | 8.61411 | 9020 ft | 277 kts | 250° |
| 2026-05-08 18:35 | 50.14721 | 8.58597 | 8900 ft | 276 kts | 250° |
| 2026-05-08 18:35 | 50.14053 | 8.55810 | 8768 ft | 275 kts | 250° |
| 2026-05-08 18:36 | 50.13377 | 8.52998 | 8633 ft | 275 kts | 249° |
| 2026-05-08 18:36 | 50.12705 | 8.50205 | 8508 ft | 275 kts | 250° |
| 2026-05-08 18:36 | 50.12036 | 8.47410 | 8383 ft | 275 kts | 250° |
| 2026-05-08 18:36 | 50.11369 | 8.44617 | 8240 ft | 274 kts | 250° |
| 2026-05-08 18:37 | 50.10710 | 8.41867 | 8114 ft | 274 kts | 249° |
| 2026-05-08 18:37 | 50.10039 | 8.39086 | 7987 ft | 274 kts | 249° |
| 2026-05-08 18:37 | 50.09364 | 8.36301 | 7857 ft | 273 kts | 249° |
| 2026-05-08 18:37 | 50.08692 | 8.33522 | 7734 ft | 273 kts | 249° |
| 2026-05-08 18:38 | 50.08026 | 8.30762 | 7603 ft | 272 kts | 250° |
| 2026-05-08 18:38 | 50.07359 | 8.28000 | 7482 ft | 272 kts | 249° |
| 2026-05-08 18:38 | 50.06701 | 8.25281 | 7355 ft | 272 kts | 249° |
| 2026-05-08 18:38 | 50.06032 | 8.22527 | 7230 ft | 271 kts | 249° |
| 2026-05-08 18:39 | 50.05361 | 8.19781 | 7110 ft | 271 kts | 249° |
| 2026-05-08 18:39 | 50.04689 | 8.17039 | 6987 ft | 269 kts | 249° |
| 2026-05-08 18:39 | 50.04036 | 8.14374 | 6767 ft | 260 kts | 249° |
| 2026-05-08 18:39 | 50.03409 | 8.11811 | 6354 ft | 255 kts | 249° |
| 2026-05-08 18:40 | 50.02982 | 8.10075 | 6042 ft | 252 kts | 249° |
| 2026-05-08 18:40 | 50.02174 | 8.06779 | 5533 ft | 240 kts | 249° |
| 2026-05-08 18:40 | 50.01586 | 8.04365 | 5154 ft | 237 kts | 249° |
| 2026-05-08 18:40 | 50.01005 | 8.01987 | 5031 ft | 236 kts | 249° |
| 2026-05-08 18:41 | 50.00417 | 7.99595 | 5030 ft | 237 kts | 249° |
| 2026-05-08 18:41 | 50.00026 | 7.98006 | 5026 ft | 237 kts | 249° |
| 2026-05-08 18:41 | 49.99440 | 7.95614 | 5028 ft | 237 kts | 249° |
| 2026-05-08 18:41 | 49.98855 | 7.93220 | 5029 ft | 237 kts | 249° |
| 2026-05-08 18:42 | 49.98123 | 7.90938 | 5028 ft | 237 kts | 229° |
| 2026-05-08 18:42 | 49.96782 | 7.89493 | 5028 ft | 237 kts | 200° |
| 2026-05-08 18:42 | 49.95208 | 7.88751 | 5027 ft | 237 kts | 194° |
| 2026-05-08 18:42 | 49.93610 | 7.88263 | 5024 ft | 236 kts | 178° |
| 2026-05-08 18:43 | 49.92052 | 7.88949 | 5027 ft | 235 kts | 146° |
| 2026-05-08 18:43 | 49.90978 | 7.90817 | 5024 ft | 234 kts | 116° |
| 2026-05-08 18:43 | 49.90335 | 7.93139 | 5027 ft | 235 kts | 110° |
| 2026-05-08 18:43 | 49.90049 | 7.95606 | 5025 ft | 234 kts | 80° |
| 2026-05-08 18:44 | 49.90775 | 7.97828 | 5032 ft | 234 kts | 49° |
| 2026-05-08 18:44 | 49.91738 | 7.99860 | 5012 ft | 236 kts | 66° |
| 2026-05-08 18:44 | 49.92252 | 8.02287 | 5034 ft | 237 kts | 71° |
| 2026-05-08 18:44 | 49.92780 | 8.04620 | 5011 ft | 219 kts | 69° |
| 2026-05-08 18:45 | 49.93285 | 8.06697 | 5056 ft | 197 kts | 68° |
| 2026-05-08 18:45 | 49.93754 | 8.08612 | 5027 ft | 185 kts | 68° |
| 2026-05-08 18:45 | 49.94212 | 8.10486 | 5027 ft | 182 kts | 69° |
| 2026-05-08 18:45 | 49.94656 | 8.12304 | 5024 ft | 182 kts | 69° |
| 2026-05-08 18:46 | 49.95104 | 8.14142 | 5026 ft | 182 kts | 69° |
| 2026-05-08 18:46 | 49.95554 | 8.15986 | 5018 ft | 182 kts | 69° |
| 2026-05-08 18:46 | 49.96003 | 8.17832 | 4865 ft | 182 kts | 69° |
| 2026-05-08 18:46 | 49.96446 | 8.19651 | 4637 ft | 181 kts | 69° |
| 2026-05-08 18:47 | 49.96887 | 8.21466 | 4381 ft | 179 kts | 69° |
| 2026-05-08 18:47 | 49.97324 | 8.23265 | 4131 ft | 177 kts | 69° |
| 2026-05-08 18:47 | 49.97757 | 8.25049 | 3874 ft | 176 kts | 69° |
| 2026-05-08 18:47 | 49.98187 | 8.26824 | 3612 ft | 175 kts | 69° |
| 2026-05-08 18:48 | 49.98614 | 8.28586 | 3376 ft | 173 kts | 69° |
| 2026-05-08 18:48 | 49.99038 | 8.30338 | 3125 ft | 172 kts | 69° |
| 2026-05-08 18:48 | 49.99453 | 8.32053 | 2879 ft | 171 kts | 69° |
| 2026-05-08 18:48 | 49.99873 | 8.33790 | 2624 ft | 170 kts | 69° |
| 2026-05-08 18:49 | 50.00288 | 8.35508 | 2390 ft | 169 kts | 69° |
| 2026-05-08 18:49 | 50.00691 | 8.37179 | 2148 ft | 157 kts | 69° |
| 2026-05-08 18:49 | 50.01069 | 8.38747 | 1935 ft | 155 kts | 68° |
| 2026-05-08 18:49 | 50.01424 | 8.40222 | 1712 ft | 137 kts | 68° |
| 2026-05-08 18:50 | 50.01748 | 8.41567 | 1515 ft | 129 kts | 69° |
| 2026-05-08 18:50 | 50.02061 | 8.42867 | 1331 ft | 128 kts | 68° |
| 2026-05-08 18:50 | 50.02368 | 8.44144 | 1153 ft | 127 kts | 68° |
| 2026-05-08 18:50 | 50.02679 | 8.45445 | 954 ft | 128 kts | 66° |
| 2026-05-08 18:51 | 50.02988 | 8.46739 | 802 ft | 128 kts | 66° |
| 2026-05-08 18:51 | 50.03300 | 8.48040 | 592 ft | 127 kts | 66° |
| 2026-05-08 18:51 | 50.03611 | 8.49336 | 392 ft | 127 kts | 65° |
| 2026-05-08 18:51 | 50.03912 | 8.50571 | 322 ft | 112 kts | 68° |
| 2026-05-08 18:52 | 50.04127 | 8.51461 | 332 ft | 63 kts | 70° |
| 2026-05-08 18:52 | 50.04234 | 8.51988 | 339 ft | 47 kts | 84° |
| 2026-05-08 18:52 | 50.04227 | 8.52253 | 340 ft | 12 kts | 99° |
| 2026-05-08 18:52 | 50.04215 | 8.52372 | 344 ft | 10 kts | 98° |
| 2026-05-08 18:53 | 50.04206 | 8.52464 | 347 ft | 8 kts | 98° |
| 2026-05-08 18:53 | 50.04198 | 8.52568 | 348 ft | 15 kts | 94° |
| 2026-05-08 18:53 | 50.04221 | 8.52754 | 355 ft | 21 kts | 70° |
| 2026-05-08 18:53 | 50.04272 | 8.52968 | 356 ft | 21 kts | 69° |
| 2026-05-08 18:54 | 50.04322 | 8.53174 | 364 ft | 19 kts | 71° |
| 2026-05-08 18:54 | 50.04360 | 8.53339 | 370 ft | 14 kts | 70° |
| 2026-05-08 18:54 | 50.04388 | 8.53456 | 374 ft | 9 kts | 72° |
| 2026-05-08 18:54 | 50.04396 | 8.53556 | 375 ft | 11 kts | 85° |
| 2026-05-08 18:55 | 50.04416 | 8.53859 | 375 ft | 18 kts | 83° |
| 2026-05-08 18:55 | 50.04432 | 8.54063 | 376 ft | 19 kts | 84° |
| 2026-05-08 18:55 | 50.04446 | 8.54275 | 375 ft | 21 kts | 85° |
| 2026-05-08 18:56 | 50.04448 | 8.54516 | 368 ft | 25 kts | 104° |
| 2026-05-08 18:56 | 50.04347 | 8.54739 | 359 ft | 23 kts | 144° |
| 2026-05-08 18:56 | 50.04188 | 8.54844 | 356 ft | 27 kts | 160° |
| 2026-05-08 18:56 | 50.04058 | 8.54919 | 355 ft | 14 kts | 159° |
| 2026-05-08 18:57 | 50.04018 | 8.55016 | 353 ft | 11 kts | 78° |
| 2026-05-08 18:57 | 50.04035 | 8.55093 | 355 ft | 12 kts | 68° |
| 2026-05-08 18:57 | 50.04085 | 8.55298 | 361 ft | 19 kts | 69° |
| 2026-05-08 18:57 | 50.04139 | 8.55524 | 352 ft | 24 kts | 70° |
| 2026-05-08 18:58 | 50.04198 | 8.55771 | 360 ft | 25 kts | 69° |
| 2026-05-08 18:58 | 50.04260 | 8.56028 | 358 ft | 25 kts | 70° |
| 2026-05-08 18:58 | 50.04321 | 8.56282 | 360 ft | 25 kts | 69° |
| 2026-05-08 18:58 | 50.04379 | 8.56523 | 360 ft | 23 kts | 69° |
| 2026-05-08 18:59 | 50.04423 | 8.56710 | 359 ft | 8 kts | 70° |
| 2026-05-08 18:59 | 50.04428 | 8.56730 | 365 ft | 0 kts | 70° |
| 2026-05-08 18:59 | 50.04428 | 8.56731 | 365 ft | 0 kts | 70° |
| 2026-05-08 18:59 | 50.04439 | 8.56776 | 360 ft | 10 kts | 70° |
| 2026-05-08 19:00 | 50.04470 | 8.56904 | 359 ft | 15 kts | 69° |
| 2026-05-08 19:00 | 50.04510 | 8.57069 | 357 ft | 17 kts | 69° |
| 2026-05-08 19:00 | 50.04553 | 8.57253 | 357 ft | 18 kts | 71° |
| 2026-05-08 19:00 | 50.04599 | 8.57449 | 359 ft | 21 kts | 69° |
| 2026-05-08 19:01 | 50.04649 | 8.57663 | 360 ft | 21 kts | 70° |
| 2026-05-08 19:01 | 50.04689 | 8.57821 | 358 ft | 10 kts | 68° |
| 2026-05-08 19:01 | 50.04701 | 8.57867 | 362 ft | 0 kts | 67° |
| 2026-05-08 19:01 | 50.04702 | 8.57869 | 361 ft | 1 kts | 67° |
| 2026-05-08 19:02 | 50.04739 | 8.57943 | 358 ft | 15 kts | 40° |
| 2026-05-08 19:02 | 50.04806 | 8.58070 | 358 ft | 16 kts | 70° |
| 2026-05-08 19:02 | 50.04845 | 8.58231 | 362 ft | 17 kts | 69° |
| 2026-05-08 19:02 | 50.04891 | 8.58418 | 363 ft | 19 kts | 69° |
| 2026-05-08 19:03 | 50.04932 | 8.58606 | 363 ft | 15 kts | 84° |
| 2026-05-08 19:03 | 50.04859 | 8.58700 | 367 ft | 15 kts | 160° |
| 2026-05-08 19:03 | 50.04750 | 8.58772 | 368 ft | 15 kts | 139° |
| 2026-05-08 19:03 | 50.04756 | 8.58900 | 373 ft | 12 kts | 69° |
| 2026-05-08 19:04 | 50.04762 | 8.58924 | 370 ft | 0 kts | 68° |
| 2026-05-08 19:04 | 50.04765 | 8.58933 | 371 ft | 4 kts | 63° |
| 2026-05-08 19:04 | 50.04806 | 8.58927 | 370 ft | 9 kts | 336° |
| 2026-05-08 19:05 | 50.04847 | 8.58903 | 367 ft | 4 kts | 338° |
| 2026-05-08 19:05 | 50.04856 | 8.58898 | 366 ft | 0 kts | 339° |